createdAt,value
2023-04-16T00:00:53.529Z,100254.56
2023-04-16T00:06:08.296Z,100254.41
2023-04-16T00:11:11.722Z,100257.02
2023-04-16T00:16:14.584Z,100259.92
2023-04-16T00:21:17.399Z,100261.84
2023-04-16T00:26:20.669Z,100258.23
2023-04-16T00:31:32.989Z,100259.95
2023-04-16T00:36:35.824Z,100262.39
2023-04-16T00:41:38.910Z,100263.27
2023-04-16T00:46:42.767Z,100267.45
2023-04-16T00:51:46.427Z,100265.38
2023-04-16T00:56:49.682Z,100266.57
2023-04-16T01:01:53.004Z,100270.05
2023-04-16T01:06:56.426Z,100266.80
2023-04-16T01:11:59.272Z,100267.16
2023-04-16T01:17:03.651Z,100268.90
2023-04-16T01:22:06.406Z,100264.25
2023-04-16T01:27:09.225Z,100263.23
2023-04-16T01:32:12.044Z,100263.25
2023-04-16T01:37:14.907Z,100262.73
2023-04-16T01:42:17.678Z,100258.39
2023-04-16T01:47:20.865Z,100258.38
2023-04-16T01:52:23.638Z,100259.06
2023-04-16T01:57:26.392Z,100257.86
2023-04-16T02:02:29.571Z,100260.09
2023-04-16T02:07:32.889Z,100265.27
2023-04-16T02:12:35.639Z,100267.36
2023-04-16T02:17:38.518Z,100268.55
2023-04-16T02:22:42.682Z,100272.34
2023-04-16T02:27:45.401Z,100272.19
2023-04-16T02:32:48.248Z,100277.23
2023-04-16T02:37:51.017Z,100273.84
2023-04-16T02:42:54.575Z,100272.85
2023-04-16T02:47:57.469Z,100279.98
2023-04-16T02:53:00.325Z,100282.96
2023-04-16T02:58:03.132Z,100286.46
2023-04-16T03:03:06.167Z,100285.96
2023-04-16T03:08:09.292Z,100293.06
2023-04-16T03:13:12.112Z,100295.55
2023-04-16T03:18:14.859Z,100299.07
2023-04-16T03:23:17.622Z,100302.37
2023-04-16T03:28:20.505Z,100303.77
2023-04-16T03:33:23.610Z,100301.04
2023-04-16T03:38:26.845Z,100307.48
2023-04-16T03:43:29.703Z,100311.11
2023-04-16T03:48:32.553Z,100313.05
2023-04-16T03:53:35.351Z,100314.80
2023-04-16T03:58:38.097Z,100319.16
2023-04-16T04:03:41.235Z,100321.95
2023-04-16T04:08:44.210Z,100327.17
2023-04-16T04:13:46.964Z,100334.29
2023-04-16T04:18:49.876Z,100338.09
2023-04-16T04:23:53.930Z,100340.33
2023-04-16T04:28:58.002Z,100345.86
2023-04-16T04:34:00.779Z,100348.30
2023-04-16T04:39:03.871Z,100351.79
2023-04-16T04:44:07.441Z,100356.69
2023-04-16T04:49:10.452Z,100359.29
2023-04-16T04:54:13.566Z,100361.38
2023-04-16T04:59:16.329Z,100365.38
2023-04-16T05:04:19.409Z,100371.09
2023-04-16T05:09:22.340Z,100375.75
2023-04-16T05:14:25.154Z,100374.18
2023-04-16T05:19:28.004Z,100377.10
2023-04-16T05:24:30.886Z,100379.35
2023-04-16T05:29:33.656Z,100381.74
2023-04-16T05:34:36.434Z,100386.02
2023-04-16T05:39:39.213Z,100391.83
2023-04-16T05:44:42.074Z,100399.89
2023-04-16T05:49:44.904Z,100398.11
2023-04-16T05:54:47.664Z,100403.75
2023-04-16T05:59:50.475Z,100403.73
2023-04-16T06:04:53.336Z,100399.67
2023-04-16T06:09:56.105Z,100401.95
2023-04-16T06:14:58.861Z,100401.30
2023-04-16T06:20:01.725Z,100404.06
2023-04-16T06:25:04.890Z,100405.86
2023-04-16T06:30:14.257Z,100408.32
2023-04-16T06:35:17.207Z,100410.95
2023-04-16T06:40:20.049Z,100410.55
2023-04-16T06:45:22.848Z,100409.45
2023-04-16T06:50:27.042Z,100411.08
2023-04-16T06:55:29.831Z,100416.31
2023-04-16T07:00:33.892Z,100415.63
2023-04-16T07:05:36.815Z,100418.08
2023-04-16T07:10:39.672Z,100418.71
2023-04-16T07:15:42.625Z,100419.34
2023-04-16T07:20:45.580Z,100426.56
2023-04-16T07:25:48.330Z,100431.20
2023-04-16T07:30:51.359Z,100432.81
2023-04-16T07:35:54.727Z,100438.70
2023-04-16T07:40:57.701Z,100439.95
2023-04-16T07:46:00.536Z,100440.03
2023-04-16T07:51:03.575Z,100444.92
2023-04-16T07:56:06.895Z,100447.77
2023-04-16T08:01:09.705Z,100445.77
2023-04-16T08:06:12.541Z,100443.98
2023-04-16T08:11:17.426Z,100448.77
2023-04-16T08:16:20.494Z,100448.29
2023-04-16T08:21:24.261Z,100455.09
2023-04-16T08:26:27.241Z,100459.89
2023-04-16T08:31:30.744Z,100463.09
2023-04-16T08:36:33.633Z,100465.63
2023-04-16T08:41:41.138Z,100477.71
2023-04-16T08:46:46.621Z,100478.61
2023-04-16T08:51:56.854Z,100482.95
2023-04-16T08:57:01.560Z,100486.80
2023-04-16T09:02:06.705Z,100496.02
2023-04-16T09:07:11.093Z,100500.08
2023-04-16T09:12:14.593Z,100507.46
2023-04-16T09:17:19.407Z,100511.16
2023-04-16T09:22:22.395Z,100513.08
2023-04-16T09:27:28.406Z,100510.67
2023-04-16T09:32:31.205Z,100517.09
2023-04-16T09:37:34.048Z,100525.27
2023-04-16T09:42:37.528Z,100526.06
2023-04-16T09:47:45.671Z,100525.69
2023-04-16T09:52:53.248Z,100528.79
2023-04-16T09:58:01.200Z,100536.16
2023-04-16T10:03:06.077Z,100538.13
2023-04-16T10:08:17.329Z,100539.43
2023-04-16T10:13:20.960Z,100540.02
2023-04-16T10:18:23.995Z,100546.53
2023-04-16T10:23:27.239Z,100548.91
2023-04-16T10:28:30.734Z,100551.48
2023-04-16T10:33:37.132Z,100555.73
2023-04-16T10:39:00.811Z,100553.40
2023-04-16T10:44:12.784Z,100552.88
2023-04-16T10:49:21.427Z,100555.30
2023-04-16T10:54:27.565Z,100562.85
2023-04-16T10:59:33.468Z,100567.77
2023-04-16T11:04:44.847Z,100569.61
2023-04-16T11:09:51.870Z,100574.48
2023-04-16T11:15:06.437Z,100575.02
2023-04-16T11:20:22.860Z,100585.58
2023-04-16T11:25:30.894Z,100588.90
2023-04-16T11:30:37.936Z,100592.23
2023-04-16T11:35:41.555Z,100591.52
2023-04-16T11:40:44.743Z,100590.54
2023-04-16T11:46:07.474Z,100595.84
2023-04-16T11:51:16.305Z,100598.91
2023-04-16T11:56:30.209Z,100606.02
2023-04-16T12:01:34.714Z,100611.48
2023-04-16T12:06:37.771Z,100616.13
2023-04-16T12:11:41.006Z,100618.82
2023-04-16T12:16:43.977Z,100626.70
2023-04-16T12:21:48.830Z,100628.91
2023-04-16T12:27:03.430Z,100632.83
2023-04-16T12:32:21.397Z,100632.73
2023-04-16T12:37:24.646Z,100630.27
2023-04-16T12:42:27.790Z,100631.45
2023-04-16T12:47:32.595Z,100628.30
2023-04-16T12:52:35.957Z,100632.75
2023-04-16T12:57:38.712Z,100627.63
2023-04-16T13:02:41.879Z,100626.55
2023-04-16T13:07:44.996Z,100629.20
2023-04-16T13:12:47.828Z,100633.91
2023-04-16T13:17:50.700Z,100632.98
2023-04-16T13:22:54.263Z,100630.60
2023-04-16T13:27:57.610Z,100625.33
2023-04-16T13:33:00.751Z,100633.95
2023-04-16T13:38:04.693Z,100636.35
2023-04-16T13:43:07.885Z,100639.70
2023-04-16T13:48:11.164Z,100638.02
2023-04-16T13:53:14.081Z,100636.95
2023-04-16T13:58:16.924Z,100635.69
2023-04-16T14:03:19.891Z,100639.87
2023-04-16T14:08:22.869Z,100641.08
2023-04-16T14:13:25.766Z,100640.73
2023-04-16T14:18:28.665Z,100639.58
2023-04-16T14:23:33.212Z,100638.62
2023-04-16T14:28:36.505Z,100637.80
2023-04-16T14:33:39.506Z,100637.79
2023-04-16T14:38:43.524Z,100640.73
2023-04-16T14:43:46.742Z,100641.94
2023-04-16T14:48:49.513Z,100644.54
2023-04-16T14:53:52.475Z,100645.67
2023-04-16T14:58:55.348Z,100650.95
2023-04-16T15:04:00.665Z,100651.71
2023-04-16T15:09:05.162Z,100654.17
2023-04-16T15:14:08.115Z,100650.91
2023-04-16T15:19:11.303Z,100659.60
2023-04-16T15:24:14.195Z,100661.80
2023-04-16T15:29:17.293Z,100664.46
2023-04-16T15:34:20.329Z,100667.09
2023-04-16T15:39:23.186Z,100669.98
2023-04-16T15:44:26.073Z,100672.67
2023-04-16T15:49:30.147Z,100677.69
2023-04-16T15:54:33.072Z,100678.85
2023-04-16T15:59:36.434Z,100684.81
2023-04-16T16:04:43.859Z,100686.95
2023-04-16T16:09:49.666Z,100690.96
2023-04-16T16:14:52.891Z,100690.06
2023-04-16T16:19:57.656Z,100694.06
2023-04-16T16:25:00.513Z,100697.39
2023-04-16T16:30:06.693Z,100699.52
2023-04-16T16:35:11.114Z,100704.91
2023-04-16T16:40:14.088Z,100708.71
2023-04-16T16:45:17.616Z,100712.70
2023-04-16T16:50:21.087Z,100715.13
2023-04-16T16:55:24.026Z,100719.11
2023-04-16T17:00:27.943Z,100716.19
2023-04-16T17:05:31.048Z,100716.42
2023-04-16T17:10:35.602Z,100717.30
2023-04-16T17:15:38.458Z,100720.44
2023-04-16T17:20:41.741Z,100724.77
2023-04-16T17:25:44.743Z,100729.43
2023-04-16T17:30:51.661Z,100735.67
2023-04-16T17:35:54.361Z,100736.70
2023-04-16T17:40:59.254Z,100738.45
2023-04-16T17:46:02.129Z,100748.39
2023-04-16T17:51:11.946Z,100751.08
2023-04-16T17:56:14.955Z,100754.05
2023-04-16T18:01:20.132Z,100762.54
2023-04-16T18:06:23.573Z,100768.98
2023-04-16T18:11:28.452Z,100776.09
2023-04-16T18:16:32.835Z,100779.02
2023-04-16T18:21:35.841Z,100776.61
2023-04-16T18:26:41.081Z,100780.09
2023-04-16T18:31:45.879Z,100783.22
2023-04-16T18:36:49.329Z,100790.88
2023-04-16T18:41:54.297Z,100795.41
2023-04-16T18:46:57.188Z,100793.16
2023-04-16T18:52:00.656Z,100797.31
2023-04-16T18:57:03.499Z,100795.56
2023-04-16T19:02:09.144Z,100796.78
2023-04-16T19:07:13.337Z,100798.01
2023-04-16T19:12:16.213Z,100801.45
2023-04-16T19:17:19.086Z,100802.67
2023-04-16T19:22:22.076Z,100798.02
2023-04-16T19:27:29.643Z,100800.10
2023-04-16T19:32:32.517Z,100801.14
2023-04-16T19:37:35.560Z,100797.32
2023-04-16T19:42:38.394Z,100801.66
2023-04-16T19:47:41.312Z,100800.48
2023-04-16T19:52:44.172Z,100799.45
2023-04-16T19:57:48.178Z,100793.20
2023-04-16T20:02:51.037Z,100792.01
2023-04-16T20:07:54.580Z,100787.69
2023-04-16T20:12:57.392Z,100790.66
2023-04-16T20:18:00.407Z,100791.02
2023-04-16T20:23:03.356Z,100787.96
2023-04-16T20:28:06.117Z,100789.19
2023-04-16T20:33:09.263Z,100796.13
2023-04-16T20:38:12.172Z,100796.81
2023-04-16T20:43:18.773Z,100800.46
2023-04-16T20:48:21.526Z,100807.39
2023-04-16T20:53:24.358Z,100807.22
2023-04-16T20:58:27.516Z,100812.61
2023-04-16T21:03:30.933Z,100814.00
2023-04-16T21:08:34.027Z,100816.10
2023-04-16T21:13:36.832Z,100819.23
2023-04-16T21:18:39.625Z,100820.95
2023-04-16T21:23:42.452Z,100823.55
2023-04-16T21:28:45.373Z,100821.81
2023-04-16T21:33:48.381Z,100824.77
2023-04-16T21:38:51.161Z,100821.29
2023-04-16T21:43:54.024Z,100822.66
2023-04-16T21:48:56.802Z,100824.58
2023-04-16T21:53:59.533Z,100823.89
2023-04-16T21:59:02.351Z,100831.88
2023-04-16T22:04:07.422Z,100829.59
2023-04-16T22:09:10.560Z,100828.55
2023-04-16T22:14:14.791Z,100832.03
2023-04-16T22:19:21.759Z,100827.71
2023-04-16T22:24:24.814Z,100825.81
2023-04-16T22:29:27.633Z,100826.34
2023-04-16T22:34:30.565Z,100819.91
2023-04-16T22:39:33.709Z,100823.38
2023-04-16T22:44:37.120Z,100827.38
2023-04-16T22:49:39.861Z,100833.11
2023-04-16T22:54:42.659Z,100834.84
2023-04-16T22:59:45.537Z,100837.95
2023-04-16T23:04:48.420Z,100837.94
2023-04-16T23:09:51.316Z,100838.10
2023-04-16T23:14:54.219Z,100835.68
2023-04-16T23:19:57.203Z,100836.21
2023-04-16T23:24:59.964Z,100840.55
2023-04-16T23:30:03.661Z,100843.15
2023-04-16T23:35:07.488Z,100846.11
2023-04-16T23:40:11.177Z,100842.29
2023-04-16T23:45:14.049Z,100848.35
2023-04-16T23:50:16.903Z,100848.17
2023-04-16T23:55:19.759Z,100844.88
